createdAt,value
2019-03-01T00:04:45.572Z,11.22
2019-03-01T00:07:51.720Z,11.03
2019-03-01T00:14:02.430Z,10.73
2019-03-01T00:17:08.554Z,10.70
2019-03-01T00:20:14.902Z,10.58
2019-03-01T00:23:21.014Z,10.49
2019-03-01T00:26:27.276Z,10.55
2019-03-01T00:29:33.409Z,10.61
2019-03-01T00:32:39.555Z,10.59
2019-03-01T00:39:14.284Z,10.55
2019-03-01T00:42:07.642Z,10.46
2019-03-01T00:44:54.310Z,10.34
2019-03-01T00:47:21.460Z,10.27
2019-03-01T00:49:48.642Z,10.28
2019-03-01T00:52:15.852Z,10.23
2019-03-01T00:54:43.032Z,10.22
2019-03-01T01:03:16.268Z,10.39
2019-03-01T01:08:44.644Z,10.47
2019-03-01T01:11:52.688Z,10.38
2019-03-01T01:17:20.989Z,10.25
2019-03-01T01:19:48.153Z,10.28
2019-03-01T01:22:27.852Z,10.35
2019-03-01T01:24:55.014Z,10.36
2019-03-01T01:27:22.532Z,10.29
2019-03-01T01:29:49.750Z,10.19
2019-03-01T01:35:30.918Z,10.19
2019-03-01T01:38:29.763Z,10.17
2019-03-01T01:43:58.158Z,10.14
2019-03-01T01:46:25.368Z,10.07
2019-03-01T01:48:52.556Z,9.98
2019-03-01T01:54:34.284Z,9.93
2019-03-01T01:57:01.465Z,10.04
2019-03-01T01:59:28.617Z,10.04
2019-03-01T02:02:36.672Z,10.04
2019-03-01T02:08:24.419Z,10.03
2019-03-01T02:10:51.959Z,9.94
2019-03-01T02:13:19.199Z,9.84
2019-03-01T02:15:46.392Z,9.78
2019-03-01T02:18:13.505Z,9.74
2019-03-01T02:20:40.561Z,9.72
2019-03-01T02:23:07.767Z,9.71
2019-03-01T02:25:34.936Z,9.71
2019-03-01T02:28:02.116Z,9.79
2019-03-01T02:30:29.469Z,9.84
2019-03-01T02:32:56.672Z,9.89
2019-03-01T02:35:25.207Z,9.93
2019-03-01T02:37:52.464Z,9.92
2019-03-01T02:40:19.641Z,9.89
2019-03-01T02:42:46.853Z,9.86
2019-03-01T02:45:15.703Z,9.84
2019-03-01T02:47:42.776Z,10.09
2019-03-01T02:50:11.267Z,10.12
2019-03-01T02:52:38.491Z,10.06
2019-03-01T02:55:47.122Z,10.14
2019-03-01T02:58:14.407Z,10.20
2019-03-01T03:00:41.567Z,10.08
2019-03-01T03:03:08.733Z,10.00
2019-03-01T03:08:27.388Z,10.05
2019-03-01T03:10:54.577Z,10.04
2019-03-01T03:13:21.728Z,9.98
2019-03-01T03:16:29.770Z,10.04
2019-03-01T03:18:57.075Z,10.26
2019-03-01T03:24:45.362Z,9.97
2019-03-01T03:27:24.806Z,9.90
2019-03-01T03:29:51.996Z,9.86
2019-03-01T03:32:19.215Z,9.82
2019-03-01T03:35:07.350Z,9.81
2019-03-01T03:37:34.531Z,9.81
2019-03-01T03:40:01.734Z,9.93
2019-03-01T03:42:29.130Z,9.87
2019-03-01T03:44:56.268Z,9.84
2019-03-01T03:47:23.383Z,9.85
2019-03-01T03:49:51.127Z,9.86
2019-03-01T03:52:18.287Z,9.91
2019-03-01T03:54:45.471Z,9.97
2019-03-01T03:57:12.759Z,9.96
2019-03-01T03:59:39.996Z,9.88
2019-03-01T04:02:07.177Z,9.90
2019-03-01T04:04:34.360Z,9.77
2019-03-01T04:07:01.562Z,9.76
2019-03-01T04:09:29.082Z,9.78
2019-03-01T04:11:57.229Z,9.78
2019-03-01T04:14:24.588Z,9.71
2019-03-01T04:16:51.793Z,9.66
2019-03-01T04:19:18.975Z,9.66
2019-03-01T04:21:46.154Z,9.54
2019-03-01T04:24:13.622Z,9.49
2019-03-01T04:26:40.856Z,9.48
2019-03-01T04:29:08.036Z,9.38
2019-03-01T04:31:35.228Z,9.52
2019-03-01T04:34:02.465Z,9.46
2019-03-01T04:36:29.664Z,9.54
2019-03-01T04:38:56.928Z,9.58
2019-03-01T04:41:24.294Z,9.57
2019-03-01T04:43:51.548Z,9.54
2019-03-01T04:46:19.144Z,9.62
2019-03-01T04:48:46.584Z,9.54
2019-03-01T04:51:13.759Z,9.52
2019-03-01T04:53:41.033Z,9.43
2019-03-01T04:56:08.342Z,9.35
2019-03-01T04:58:35.550Z,9.46
2019-03-01T05:01:03.242Z,9.35
2019-03-01T05:03:30.575Z,9.36
2019-03-01T05:05:57.693Z,9.23
2019-03-01T05:08:24.966Z,9.26
2019-03-01T05:10:52.157Z,9.20
2019-03-01T05:13:19.337Z,9.28
2019-03-01T05:15:46.803Z,9.33
2019-03-01T05:18:14.599Z,9.30
2019-03-01T05:20:41.643Z,9.31
2019-03-01T05:23:08.845Z,9.34
2019-03-01T05:25:36.045Z,9.31
2019-03-01T05:28:03.222Z,9.29
2019-03-01T05:30:30.365Z,9.27
2019-03-01T05:32:57.594Z,9.24
2019-03-01T05:35:24.730Z,9.25
2019-03-01T05:37:51.879Z,9.28
2019-03-01T05:40:19.206Z,9.26
2019-03-01T05:42:46.363Z,9.28
2019-03-01T05:45:19.067Z,9.24
2019-03-01T05:47:46.146Z,9.27
2019-03-01T05:50:13.507Z,9.21
2019-03-01T05:52:40.774Z,9.32
2019-03-01T05:55:08.313Z,9.39
2019-03-01T05:57:35.847Z,9.37
2019-03-01T06:00:06.050Z,9.47
2019-03-01T06:03:22.715Z,9.55
2019-03-01T06:05:50.011Z,9.53
2019-03-01T06:08:48.120Z,9.49
2019-03-01T06:11:48.012Z,9.48
2019-03-01T06:15:15.535Z,9.70
2019-03-01T06:18:19.300Z,9.62
2019-03-01T06:20:52.309Z,9.51
2019-03-01T06:23:51.128Z,9.53
2019-03-01T06:26:49.795Z,9.55
2019-03-01T06:29:43.748Z,9.51
2019-03-01T06:32:36.218Z,9.47
2019-03-01T06:35:34.757Z,9.51
2019-03-01T06:39:12.042Z,9.53
2019-03-01T06:41:55.702Z,9.49
2019-03-01T06:44:57.211Z,9.57
2019-03-01T06:47:38.816Z,9.63
2019-03-01T06:50:17.144Z,9.65
2019-03-01T06:52:44.324Z,9.73
2019-03-01T06:55:36.728Z,9.81
2019-03-01T06:58:05.076Z,9.83
2019-03-01T07:00:35.842Z,9.92
2019-03-01T07:03:03.205Z,10.03
2019-03-01T07:05:30.418Z,10.21
2019-03-01T07:07:57.580Z,10.37
2019-03-01T07:10:25.037Z,10.56
2019-03-01T07:12:52.292Z,10.71
2019-03-01T07:15:19.613Z,10.90
2019-03-01T07:17:46.891Z,11.08
2019-03-01T07:20:14.077Z,11.22
2019-03-01T07:22:41.381Z,11.28
2019-03-01T07:25:08.616Z,11.21
2019-03-01T07:27:35.794Z,11.12
2019-03-01T07:30:03.364Z,11.06
2019-03-01T07:32:30.626Z,11.05
2019-03-01T07:34:57.814Z,11.02
2019-03-01T07:37:25.148Z,11.06
2019-03-01T07:39:52.370Z,11.07
2019-03-01T07:42:19.617Z,11.03
2019-03-01T07:44:46.841Z,11.07
2019-03-01T07:47:14.125Z,11.11
2019-03-01T07:49:41.408Z,11.20
2019-03-01T07:52:08.624Z,11.11
2019-03-01T07:54:36.014Z,11.07
2019-03-01T07:57:03.329Z,11.13
2019-03-01T07:59:31.818Z,11.28
2019-03-01T08:02:00.776Z,11.37
2019-03-01T08:04:29.693Z,11.57
2019-03-01T08:06:57.068Z,11.76
2019-03-01T08:09:24.276Z,11.98
2019-03-01T08:11:51.533Z,12.41
2019-03-01T08:14:18.751Z,12.76
2019-03-01T08:16:46.191Z,12.89
2019-03-01T08:19:17.058Z,12.93
2019-03-01T08:21:42.811Z,12.94
2019-03-01T08:24:11.932Z,12.95
2019-03-01T08:26:39.222Z,12.89
2019-03-01T08:29:06.827Z,12.57
2019-03-01T08:31:34.150Z,12.28
2019-03-01T08:34:02.195Z,12.10
2019-03-01T08:36:29.402Z,12.03
2019-03-01T08:38:56.623Z,11.99
2019-03-01T08:41:24.967Z,12.06
2019-03-01T08:43:52.890Z,12.09
2019-03-01T08:46:20.113Z,12.05
2019-03-01T08:48:47.292Z,12.01
2019-03-01T08:51:14.514Z,11.97
2019-03-01T08:53:41.722Z,11.99
2019-03-01T08:56:11.037Z,12.07
2019-03-01T08:58:41.561Z,12.42
2019-03-01T09:01:09.806Z,12.82
2019-03-01T09:03:41.749Z,12.97
2019-03-01T09:06:08.976Z,13.02
2019-03-01T09:08:36.341Z,12.87
2019-03-01T09:11:05.593Z,12.66
2019-03-01T09:13:32.723Z,12.53
2019-03-01T09:16:00.015Z,12.38
2019-03-01T09:18:27.193Z,12.30
2019-03-01T09:20:54.292Z,12.25
2019-03-01T09:23:26.424Z,12.27
2019-03-01T09:25:50.660Z,12.32
2019-03-01T09:28:17.901Z,12.46
2019-03-01T09:30:45.352Z,12.74
2019-03-01T09:33:12.390Z,12.85
2019-03-01T09:35:59.129Z,12.85
2019-03-01T09:38:26.292Z,12.85
2019-03-01T09:41:36.539Z,13.00
2019-03-01T09:44:23.602Z,13.11
2019-03-01T09:46:50.862Z,13.13
2019-03-01T09:49:18.052Z,13.04
2019-03-01T09:52:26.126Z,12.93
2019-03-01T09:54:53.623Z,12.87
2019-03-01T09:57:20.852Z,12.95
2019-03-01T09:59:48.091Z,12.95
2019-03-01T10:02:15.443Z,12.79
2019-03-01T10:04:42.879Z,12.65
2019-03-01T10:07:11.933Z,12.57
2019-03-01T10:09:39.190Z,12.55
2019-03-01T10:12:06.544Z,12.54
2019-03-01T10:14:33.793Z,12.70
2019-03-01T10:17:01.013Z,13.01
2019-03-01T10:19:47.698Z,13.17
2019-03-01T10:22:15.010Z,13.39
2019-03-01T10:24:42.212Z,13.90
2019-03-01T10:30:44.256Z,15.23
2019-03-01T10:33:12.201Z,15.96
2019-03-01T10:35:39.316Z,16.77
2019-03-01T10:41:07.953Z,17.49
2019-03-01T10:43:35.251Z,17.91
2019-03-01T10:46:14.803Z,18.05
2019-03-01T10:48:42.031Z,17.94
2019-03-01T10:51:09.210Z,17.76
2019-03-01T10:53:36.458Z,17.50
2019-03-01T10:56:03.638Z,17.05
2019-03-01T10:58:30.797Z,16.65
2019-03-01T11:00:58.341Z,16.04
2019-03-01T11:03:25.814Z,15.64
2019-03-01T11:06:33.753Z,15.24
2019-03-01T11:12:47.270Z,14.83
2019-03-01T11:18:15.263Z,15.48
2019-03-01T11:20:42.394Z,15.99
2019-03-01T11:23:21.547Z,16.21
2019-03-01T11:25:48.727Z,16.21
2019-03-01T11:28:16.237Z,16.08
2019-03-01T11:40:06.735Z,15.61
2019-03-01T11:42:34.436Z,15.78
2019-03-01T11:45:01.637Z,15.84
2019-03-01T11:47:30.650Z,15.74
2019-03-01T11:49:57.861Z,15.47
2019-03-01T11:52:25.075Z,15.41
2019-03-01T11:54:52.251Z,15.75
2019-03-01T11:57:19.500Z,16.07
2019-03-01T11:59:46.677Z,16.14
2019-03-01T12:02:13.895Z,16.33
2019-03-01T12:14:05.107Z,15.15
2019-03-01T12:16:44.035Z,14.65
2019-03-01T12:27:53.218Z,13.42
2019-03-01T12:33:22.374Z,13.29
2019-03-01T12:36:01.541Z,13.32
2019-03-01T12:38:40.725Z,13.33
2019-03-01T12:41:07.897Z,13.43
2019-03-01T12:43:35.400Z,13.65
2019-03-01T12:49:03.981Z,13.88
2019-03-01T12:52:11.968Z,13.83
2019-03-01T12:54:39.659Z,13.88
2019-03-01T12:57:26.401Z,13.95
2019-03-01T13:03:14.175Z,14.00
2019-03-01T13:05:41.325Z,13.95
2019-03-01T13:08:08.859Z,13.90
2019-03-01T13:10:36.824Z,13.89
2019-03-01T13:16:12.071Z,14.39
2019-03-01T13:18:39.345Z,14.83
2019-03-01T13:21:09.593Z,15.17
2019-03-01T13:23:46.654Z,15.41
2019-03-01T13:26:13.840Z,15.26
2019-03-01T13:28:43.847Z,15.10
2019-03-01T13:31:11.477Z,15.02
2019-03-01T13:33:39.251Z,15.11
2019-03-01T13:36:06.408Z,15.18
2019-03-01T13:38:35.093Z,15.26
2019-03-01T13:41:02.991Z,15.30
2019-03-01T13:43:30.511Z,15.28
2019-03-01T13:45:57.752Z,15.13
2019-03-01T13:48:25.305Z,15.00
2019-03-01T13:50:52.363Z,14.88
2019-03-01T13:53:19.607Z,14.82
2019-03-01T13:55:46.757Z,14.90
2019-03-01T13:58:13.972Z,14.95
2019-03-01T14:00:41.547Z,14.87
2019-03-01T14:03:08.615Z,14.81
2019-03-01T14:05:35.682Z,14.64
2019-03-01T14:08:09.068Z,14.67
2019-03-01T14:10:33.039Z,14.67
2019-03-01T14:13:00.256Z,14.48
2019-03-01T14:15:27.529Z,14.28
2019-03-01T14:18:00.617Z,14.02
2019-03-01T14:20:23.766Z,13.91
2019-03-01T14:22:51.004Z,13.82
2019-03-01T14:25:18.458Z,13.79
2019-03-01T14:27:45.995Z,13.69
2019-03-01T14:30:15.501Z,13.65
2019-03-01T14:32:42.693Z,13.50
2019-03-01T14:35:10.704Z,13.38
2019-03-01T14:37:37.919Z,13.28
2019-03-01T14:40:07.112Z,13.30
2019-03-01T14:42:34.325Z,13.21
2019-03-01T14:45:01.571Z,13.23
2019-03-01T14:47:32.589Z,13.21
2019-03-01T14:49:58.738Z,13.21
2019-03-01T14:52:26.250Z,13.28
2019-03-01T14:54:54.149Z,13.29
2019-03-01T14:57:30.725Z,13.40
2019-03-01T15:00:14.234Z,13.50
2019-03-01T15:02:53.273Z,13.58
2019-03-01T15:05:20.892Z,13.59
2019-03-01T15:07:48.065Z,13.57
2019-03-01T15:10:16.005Z,13.49
2019-03-01T15:12:43.304Z,13.44
2019-03-01T15:15:11.613Z,13.40
2019-03-01T15:17:39.216Z,13.38
2019-03-01T15:20:08.943Z,13.33
2019-03-01T15:22:36.186Z,13.29
2019-03-01T15:25:04.161Z,13.23
2019-03-01T15:27:31.401Z,13.04
2019-03-01T15:29:58.611Z,12.92
2019-03-01T15:32:26.044Z,12.75
2019-03-01T15:34:53.225Z,12.65
2019-03-01T15:37:20.443Z,12.48
2019-03-01T15:39:47.925Z,12.22
2019-03-01T15:42:17.880Z,12.09
2019-03-01T15:44:44.495Z,11.92
2019-03-01T15:47:11.647Z,11.83
2019-03-01T15:49:38.854Z,11.82
2019-03-01T15:52:06.318Z,11.82
2019-03-01T15:54:35.857Z,11.78
2019-03-01T15:57:02.849Z,11.74
2019-03-01T15:59:30.037Z,11.69
2019-03-01T16:01:57.269Z,11.71
2019-03-01T16:04:24.797Z,11.71
2019-03-01T16:06:55.247Z,11.73
2019-03-01T16:09:21.727Z,11.85
2019-03-01T16:11:53.206Z,11.75
2019-03-01T16:14:21.102Z,11.61
2019-03-01T16:16:50.164Z,11.45
2019-03-01T16:19:17.402Z,11.27
2019-03-01T16:21:44.580Z,11.04
2019-03-01T16:24:12.214Z,11.04
2019-03-01T16:26:39.417Z,10.95
2019-03-01T16:29:07.311Z,10.81
2019-03-01T16:31:35.808Z,10.69
2019-03-01T16:34:04.358Z,10.50
2019-03-01T16:36:52.851Z,10.42
2019-03-01T16:39:20.596Z,10.39
2019-03-01T16:41:51.783Z,10.23
2019-03-01T16:44:19.042Z,9.95
2019-03-01T16:46:46.552Z,9.71
2019-03-01T16:49:13.757Z,9.50
2019-03-01T16:51:41.368Z,9.39
2019-03-01T16:54:08.925Z,9.32
2019-03-01T16:56:38.535Z,9.17
2019-03-01T16:59:07.315Z,8.96
2019-03-01T17:01:34.318Z,8.90
2019-03-01T17:04:01.508Z,8.93
2019-03-01T17:06:29.244Z,9.06
2019-03-01T17:08:56.422Z,9.11
2019-03-01T17:11:23.944Z,9.10
2019-03-01T17:13:51.456Z,9.06
2019-03-01T17:16:20.416Z,9.05
2019-03-01T17:18:48.606Z,9.06
2019-03-01T17:21:16.621Z,9.23
2019-03-01T17:23:43.868Z,9.43
2019-03-01T17:26:11.068Z,9.39
2019-03-01T17:28:38.346Z,9.44
2019-03-01T17:31:05.583Z,9.48
2019-03-01T17:33:32.893Z,9.30
2019-03-01T17:36:00.194Z,9.17
2019-03-01T17:38:27.409Z,9.03
2019-03-01T17:40:54.586Z,8.97
2019-03-01T17:43:22.211Z,8.97
2019-03-01T17:45:49.435Z,8.86
2019-03-01T17:48:18.340Z,8.89
2019-03-01T17:50:45.776Z,8.89
2019-03-01T17:53:12.962Z,8.95
2019-03-01T17:55:40.170Z,9.17
2019-03-01T17:58:08.919Z,9.22
2019-03-01T18:00:37.094Z,9.11
2019-03-01T18:03:04.314Z,9.01
2019-03-01T18:05:31.544Z,8.87
2019-03-01T18:08:00.019Z,8.80
2019-03-01T18:10:28.696Z,8.71
2019-03-01T18:12:57.319Z,8.76
2019-03-01T18:15:24.820Z,8.83
2019-03-01T18:17:52.467Z,9.14
2019-03-01T18:20:19.759Z,9.26
2019-03-01T18:22:46.963Z,9.30
2019-03-01T18:25:14.407Z,9.34
2019-03-01T18:27:41.776Z,9.55
2019-03-01T18:30:12.448Z,9.54
2019-03-01T18:32:41.740Z,9.51
2019-03-01T18:35:11.432Z,9.50
2019-03-01T18:37:38.663Z,9.46
2019-03-01T18:40:07.290Z,9.54
2019-03-01T18:42:38.056Z,9.55
2019-03-01T18:45:07.079Z,9.52
2019-03-01T18:47:33.951Z,9.57
2019-03-01T18:50:01.158Z,9.52
2019-03-01T18:52:28.645Z,9.48
2019-03-01T18:54:55.945Z,9.58
2019-03-01T18:57:23.465Z,9.61
2019-03-01T18:59:50.787Z,9.69
2019-03-01T19:02:18.076Z,9.68
2019-03-01T19:04:45.304Z,9.62
2019-03-01T19:07:13.046Z,9.61
2019-03-01T19:09:40.220Z,9.60
2019-03-01T19:12:09.485Z,9.60
2019-03-01T19:14:39.208Z,9.59
2019-03-01T19:17:05.898Z,9.78
2019-03-01T19:19:33.207Z,9.77
2019-03-01T19:22:00.396Z,9.86
2019-03-01T19:24:27.576Z,9.90
2019-03-01T19:26:54.799Z,9.80
2019-03-01T19:29:22.309Z,9.85
2019-03-01T19:31:49.526Z,9.71
2019-03-01T19:37:17.925Z,9.70
2019-03-01T19:46:19.949Z,9.63
2019-03-01T19:48:59.052Z,9.68
2019-03-01T20:00:29.999Z,9.26
2019-03-01T20:05:58.582Z,9.17
2019-03-01T20:08:26.416Z,9.20
2019-03-01T20:11:16.000Z,9.15
2019-03-01T20:13:43.235Z,9.08
2019-03-01T20:16:51.306Z,9.05
2019-03-01T20:23:26.528Z,8.90
2019-03-01T20:32:35.204Z,8.77
2019-03-01T20:38:10.633Z,8.77
2019-03-01T20:40:37.851Z,8.73
2019-03-01T20:43:06.918Z,8.76
2019-03-01T20:45:59.998Z,8.71
2019-03-01T20:48:28.947Z,8.66
2019-03-01T20:51:02.941Z,8.66
2019-03-01T20:53:30.180Z,8.68
2019-03-01T20:55:57.744Z,8.68
2019-03-01T20:58:25.117Z,8.64
2019-03-01T21:00:52.299Z,8.67
2019-03-01T21:06:21.111Z,8.76
2019-03-01T21:08:48.321Z,8.73
2019-03-01T21:14:16.859Z,8.87
2019-03-01T21:16:44.853Z,8.72
2019-03-01T21:19:19.046Z,8.63
2019-03-01T21:21:46.834Z,8.54
2019-03-01T21:24:14.016Z,8.55
2019-03-01T21:26:41.285Z,8.62
2019-03-01T21:29:08.955Z,8.63
2019-03-01T21:34:48.329Z,8.50
2019-03-01T21:37:16.638Z,8.52
2019-03-01T21:40:46.916Z,8.47
2019-03-01T21:43:21.028Z,8.39
2019-03-01T21:45:48.313Z,8.30
2019-03-01T21:48:18.632Z,8.31
2019-03-01T21:53:57.562Z,8.23
2019-03-01T22:00:10.930Z,8.18
2019-03-01T22:02:38.498Z,8.14
2019-03-01T22:05:25.150Z,8.03
2019-03-01T22:08:12.933Z,7.95
2019-03-01T22:10:47.026Z,7.79
2019-03-01T22:13:16.028Z,7.62
2019-03-01T22:15:45.403Z,7.49
2019-03-01T22:18:12.623Z,7.34
2019-03-01T22:20:59.217Z,7.24
2019-03-01T22:23:26.493Z,7.22
2019-03-01T22:25:55.601Z,7.21
2019-03-01T22:28:43.119Z,7.22
2019-03-01T22:31:10.333Z,7.25
2019-03-01T22:33:39.305Z,7.24
2019-03-01T22:36:07.172Z,7.25
2019-03-01T22:39:16.599Z,7.22
2019-03-01T22:41:50.153Z,7.29
2019-03-01T22:44:17.353Z,7.38
2019-03-01T22:47:25.412Z,7.44
2019-03-01T22:49:52.570Z,7.52
2019-03-01T22:52:20.142Z,7.54
2019-03-01T22:57:27.828Z,7.30
2019-03-01T23:09:18.944Z,7.02
2019-03-01T23:15:19.780Z,6.98
2019-03-01T23:17:46.842Z,7.04
2019-03-01T23:20:14.064Z,6.98
2019-03-01T23:22:42.668Z,7.02
2019-03-01T23:25:30.565Z,7.05
2019-03-01T23:27:57.793Z,7.00
2019-03-01T23:39:48.005Z,6.89
2019-03-01T23:42:34.646Z,6.97
2019-03-01T23:51:06.738Z,7.12
2019-03-01T23:54:33.851Z,6.93
2019-03-01T23:57:20.567Z,6.79
